Time;durP1;ratioP1;P1;durP2;ratioP2;P2;SDS_P1;SDS_P2;PMS_P1;PMS_P2;Temp;Humidity;BMP_temperature;BMP_pressure;BME280_temperature;BME280_humidity;BME280_pressure;Samples;Min_cycle;Max_cycle;Signal;HPM_P1;HPM_P2
2021/09/10 00:01:38;;;;;;;12.07;4.45;;;;;;;;;;5091784;28;20040;-70
2021/09/10 00:04:04;;;;;;;7.78;4.55;;;;;;;;;;5091800;28;20055;-69
2021/09/10 00:06:31;;;;;;;7.85;3.83;;;;;;;;;;5092078;28;20405;-69
2021/09/10 00:08:57;;;;;;;7.25;4.05;;;;;;;;;;5092046;28;20481;-69
2021/09/10 00:11:24;;;;;;;8.50;4.20;;;;;;;;;;5092131;28;20130;-69
2021/09/10 00:13:50;;;;;;;10.05;4.53;;;;;;;;;;5092145;28;20036;-69
2021/09/10 00:16:16;;;;;;;10.82;3.95;;;;;;;;;;5093998;28;20059;-69
2021/09/10 00:18:42;;;;;;;15.65;5.18;;;;;;;;;;5095817;28;20541;-71
2021/09/10 00:21:08;;;;;;;6.72;4.32;;;;;;;;;;5095761;28;20036;-72
2021/09/10 00:23:34;;;;;;;9.55;4.20;;;;;;;;;;5095567;28;20040;-70
2021/09/10 00:26:00;;;;;;;7.10;4.20;;;;;;;;;;5095796;28;20047;-70
2021/09/10 00:28:26;;;;;;;7.10;3.97;;;;;;;;;;5095498;28;20033;-70
2021/09/10 00:30:52;;;;;;;11.35;4.72;;;;;;;;;;5095567;28;20036;-71
2021/09/10 00:33:19;;;;;;;9.77;4.40;;;;;;;;;;5095481;28;20078;-70
2021/09/10 00:35:45;;;;;;;8.18;3.95;;;;;;;;;;5095457;28;20433;-70
2021/09/10 00:38:11;;;;;;;8.70;3.88;;;;;;;;;;5095638;28;20085;-70
2021/09/10 00:40:37;;;;;;;7.00;3.88;;;;;;;;;;5095660;28;20036;-71
2021/09/10 00:43:03;;;;;;;6.78;3.88;;;;;;;;;;5095479;28;20032;-71
2021/09/10 00:45:29;;;;;;;6.38;3.60;;;;;;;;;;5095388;28;20050;-70
2021/09/10 00:47:58;;;;;;;10.88;4.00;;;;;;;;;;5095130;28;20036;-70
2021/09/10 00:50:24;;;;;;;7.28;3.85;;;;;;;;;;5095214;28;20135;-70
2021/09/10 00:52:50;;;;;;;8.77;4.03;;;;;;;;;;5095362;28;20032;-70
2021/09/10 00:55:25;;;;;;;6.65;3.50;;;;;;;;;;5095020;28;20036;-70
2021/09/10 00:57:51;;;;;;;11.15;4.43;;;;;;;;;;5093770;28;20750;-70
2021/09/10 01:00:17;;;;;;;9.30;4.00;;;;;;;;;;5092169;28;20085;-71
2021/09/10 01:02:43;;;;;;;9.38;4.45;;;;;;;;;;5092063;28;20036;-70
2021/09/10 01:05:09;;;;;;;5.85;3.83;;;;;;;;;;5093392;28;20059;-70
2021/09/10 01:07:35;;;;;;;7.05;4.10;;;;;;;;;;5094550;28;20028;-70
2021/09/10 01:10:02;;;;;;;8.95;4.18;;;;;;;;;;5094649;28;20048;-70
2021/09/10 01:12:28;;;;;;;11.70;3.97;;;;;;;;;;5094628;28;20106;-70
2021/09/10 01:14:54;;;;;;;11.23;4.32;;;;;;;;;;5094548;28;20452;-70
2021/09/10 01:17:21;;;;;;;11.63;4.43;;;;;;;;;;5094792;28;20024;-70
2021/09/10 01:19:47;;;;;;;6.68;4.10;;;;;;;;;;5095006;28;20048;-70
2021/09/10 01:22:13;;;;;;;10.40;4.13;;;;;;;;;;5094305;28;20027;-70
2021/09/10 01:24:40;;;;;;;10.38;4.25;;;;;;;;;;5094196;28;20048;-70
2021/09/10 01:27:07;;;;;;;11.80;5.13;;;;;;;;;;5093969;28;20028;-70
2021/09/10 01:29:34;;;;;;;15.13;4.35;;;;;;;;;;5094205;28;20058;-70
2021/09/10 01:32:01;;;;;;;10.05;4.18;;;;;;;;;;5094030;28;20434;-71
2021/09/10 01:34:27;;;;;;;8.60;4.20;;;;;;;;;;5094412;28;20047;-70
2021/09/10 01:36:53;;;;;;;7.78;4.10;;;;;;;;;;5093874;28;20097;-70
2021/09/10 01:39:19;;;;;;;6.95;3.88;;;;;;;;;;5093898;28;20039;-70
2021/09/10 01:41:45;;;;;;;7.53;3.92;;;;;;;;;;5094217;28;20036;-71
2021/09/10 01:44:11;;;;;;;9.88;4.28;;;;;;;;;;5093859;28;20515;-70
2021/09/10 01:46:37;;;;;;;13.13;4.50;;;;;;;;;;5094021;28;20485;-70
2021/09/10 01:49:03;;;;;;;10.20;4.88;;;;;;;;;;5093856;28;20131;-70
2021/09/10 01:51:30;;;;;;;10.00;4.30;;;;;;;;;;5093818;28;20071;-70
2021/09/10 01:53:56;;;;;;;7.90;4.15;;;;;;;;;;5094062;28;20441;-70
2021/09/10 01:56:22;;;;;;;5.00;3.70;;;;;;;;;;5093556;28;20134;-70
2021/09/10 01:58:48;;;;;;;11.32;4.60;;;;;;;;;;5093576;28;20028;-70
2021/09/10 02:01:14;;;;;;;11.85;5.00;;;;;;;;;;5093818;28;20070;-70
2021/09/10 02:03:40;;;;;;;11.20;4.47;;;;;;;;;;5093964;28;20350;-70
2021/09/10 02:06:06;;;;;;;9.75;4.80;;;;;;;;;;5093948;28;20051;-71
2021/09/10 02:08:32;;;;;;;10.10;4.78;;;;;;;;;;5093907;28;20024;-70
2021/09/10 02:10:58;;;;;;;7.20;3.95;;;;;;;;;;5093920;28;20536;-70
2021/09/10 02:13:24;;;;;;;10.18;4.85;;;;;;;;;;5093642;28;20028;-70
2021/09/10 02:15:50;;;;;;;13.95;3.90;;;;;;;;;;5093309;28;20060;-70
2021/09/10 02:18:16;;;;;;;6.40;4.20;;;;;;;;;;5093282;28;20099;-70
2021/09/10 02:20:42;;;;;;;9.57;3.85;;;;;;;;;;5093063;28;20119;-70
2021/09/10 02:23:08;;;;;;;8.80;4.15;;;;;;;;;;5093237;28;20118;-70
2021/09/10 02:25:34;;;;;;;6.97;4.40;;;;;;;;;;5093000;28;20044;-70
2021/09/10 02:28:00;;;;;;;5.85;4.28;;;;;;;;;;5093172;28;20024;-70
2021/09/10 02:30:26;;;;;;;6.03;4.03;;;;;;;;;;5092776;28;20504;-71
2021/09/10 02:32:52;;;;;;;8.43;4.10;;;;;;;;;;5093086;28;20050;-70
2021/09/10 02:35:18;;;;;;;8.27;4.30;;;;;;;;;;5092916;28;20208;-70
2021/09/10 02:37:44;;;;;;;9.48;4.40;;;;;;;;;;5092586;28;20028;-71
2021/09/10 02:40:11;;;;;;;10.05;4.63;;;;;;;;;;5093258;28;20067;-70
2021/09/10 02:42:37;;;;;;;13.95;4.72;;;;;;;;;;5093010;28;20385;-70
2021/09/10 02:45:03;;;;;;;9.02;4.57;;;;;;;;;;5092920;28;20446;-71
2021/09/10 02:47:30;;;;;;;12.90;4.90;;;;;;;;;;5093276;28;20035;-70
2021/09/10 02:49:56;;;;;;;11.00;4.75;;;;;;;;;;5092900;28;20056;-70
2021/09/10 02:52:22;;;;;;;6.75;4.20;;;;;;;;;;5092650;28;20041;-71
2021/09/10 02:54:48;;;;;;;8.73;4.32;;;;;;;;;;5092938;28;20039;-70
2021/09/10 02:57:14;;;;;;;8.65;4.70;;;;;;;;;;5092641;28;20496;-70
2021/09/10 02:59:40;;;;;;;14.02;4.70;;;;;;;;;;5092831;28;20035;-70
2021/09/10 03:02:06;;;;;;;8.25;4.75;;;;;;;;;;5092676;28;20044;-71
2021/09/10 03:04:32;;;;;;;10.75;4.13;;;;;;;;;;5092660;28;20170;-70
2021/09/10 03:06:58;;;;;;;8.23;4.97;;;;;;;;;;5092782;28;20059;-70
2021/09/10 03:09:24;;;;;;;16.00;5.22;;;;;;;;;;5092883;28;20176;-70
2021/09/10 03:11:50;;;;;;;11.38;5.47;;;;;;;;;;5092921;28;20066;-70
2021/09/10 03:14:16;;;;;;;12.50;4.93;;;;;;;;;;5092451;28;20046;-70
2021/09/10 03:16:42;;;;;;;7.32;4.63;;;;;;;;;;5092710;28;20111;-70
2021/09/10 03:19:09;;;;;;;12.68;4.70;;;;;;;;;;5092781;28;20115;-71
2021/09/10 03:21:35;;;;;;;8.32;4.25;;;;;;;;;;5092646;28;20040;-71
2021/09/10 03:24:01;;;;;;;12.77;4.47;;;;;;;;;;5092384;28;20034;-70
2021/09/10 03:26:28;;;;;;;7.88;4.40;;;;;;;;;;5092458;28;20111;-69
2021/09/10 03:28:54;;;;;;;10.30;4.38;;;;;;;;;;5092409;28;20028;-71
2021/09/10 03:31:20;;;;;;;7.82;4.13;;;;;;;;;;5092060;28;20048;-71
2021/09/10 03:33:46;;;;;;;12.70;4.00;;;;;;;;;;5092212;28;20025;-70
2021/09/10 03:36:12;;;;;;;7.10;4.20;;;;;;;;;;5092342;28;20158;-70
2021/09/10 03:38:38;;;;;;;7.05;3.80;;;;;;;;;;5092580;28;20047;-70
2021/09/10 03:41:04;;;;;;;10.43;4.43;;;;;;;;;;5092478;28;20381;-70
2021/09/10 03:43:30;;;;;;;7.72;4.30;;;;;;;;;;5092433;28;20036;-70
2021/09/10 03:45:56;;;;;;;7.65;4.43;;;;;;;;;;5092044;28;20043;-70
2021/09/10 03:48:22;;;;;;;7.32;4.30;;;;;;;;;;5092055;28;20032;-70
2021/09/10 03:50:48;;;;;;;6.95;4.18;;;;;;;;;;5095714;28;20385;-72
2021/09/10 03:53:14;;;;;;;7.10;3.90;;;;;;;;;;5096192;28;20384;-70
2021/09/10 03:55:40;;;;;;;7.05;4.18;;;;;;;;;;5096213;28;20113;-71
2021/09/10 03:58:06;;;;;;;12.68;5.25;;;;;;;;;;5095896;28;20453;-71
2021/09/10 04:00:32;;;;;;;12.25;4.40;;;;;;;;;;5096425;28;20119;-70
2021/09/10 04:03:03;;;;;;;11.32;4.15;;;;;;;;;;5096559;28;20141;-70
2021/09/10 04:05:29;;;;;;;10.90;4.43;;;;;;;;;;5096467;28;20058;-70
2021/09/10 04:07:55;;;;;;;9.35;4.57;;;;;;;;;;5096105;28;20028;-70
2021/09/10 04:10:21;;;;;;;11.65;4.18;;;;;;;;;;5096013;28;20036;-70
2021/09/10 04:12:47;;;;;;;13.43;4.80;;;;;;;;;;5095811;28;20060;-70
2021/09/10 04:15:13;;;;;;;7.05;4.85;;;;;;;;;;5095758;28;20054;-70
2021/09/10 04:17:39;;;;;;;8.68;4.38;;;;;;;;;;5096001;28;20032;-70
2021/09/10 04:20:05;;;;;;;6.82;4.32;;;;;;;;;;5095819;28;20110;-70
2021/09/10 04:22:31;;;;;;;11.02;4.50;;;;;;;;;;5095838;28;20024;-70
2021/09/10 04:24:57;;;;;;;12.25;4.60;;;;;;;;;;5095431;28;20040;-70
2021/09/10 04:27:23;;;;;;;11.75;4.65;;;;;;;;;;5095929;28;20032;-70
2021/09/10 04:29:49;;;;;;;6.15;4.80;;;;;;;;;;5095885;28;20401;-69
2021/09/10 04:32:15;;;;;;;9.18;4.82;;;;;;;;;;5095552;28;20028;-70
2021/09/10 04:34:41;;;;;;;14.98;4.93;;;;;;;;;;5095513;28;20035;-70
2021/09/10 04:37:07;;;;;;;20.38;4.97;;;;;;;;;;5095658;28;20237;-70
2021/09/10 04:39:33;;;;;;;11.80;4.65;;;;;;;;;;5095513;28;20036;-70
2021/09/10 04:41:59;;;;;;;10.10;4.60;;;;;;;;;;5095390;28;20028;-70
2021/09/10 04:44:25;;;;;;;9.25;4.70;;;;;;;;;;5095106;28;20048;-70
2021/09/10 04:46:51;;;;;;;18.92;5.45;;;;;;;;;;5095235;28;20040;-71
2021/09/10 04:49:17;;;;;;;17.67;5.22;;;;;;;;;;5095129;28;20544;-70
2021/09/10 04:51:43;;;;;;;19.08;5.65;;;;;;;;;;5095361;28;20124;-70
2021/09/10 04:54:10;;;;;;;25.95;5.10;;;;;;;;;;5094929;28;20063;-70
2021/09/10 04:56:36;;;;;;;24.15;4.68;;;;;;;;;;5095150;28;20028;-70
2021/09/10 04:59:02;;;;;;;20.23;5.65;;;;;;;;;;5094837;28;20040;-70
2021/09/10 05:01:28;;;;;;;28.35;5.53;;;;;;;;;;5094049;28;20241;-70
2021/09/10 05:03:54;;;;;;;25.73;4.78;;;;;;;;;;5095325;28;20085;-70
2021/09/10 05:06:20;;;;;;;10.50;4.90;;;;;;;;;;5095114;28;20040;-70
2021/09/10 05:08:46;;;;;;;16.80;5.43;;;;;;;;;;5094878;28;20388;-70
2021/09/10 05:11:12;;;;;;;19.80;4.93;;;;;;;;;;5094712;28;20039;-69
2021/09/10 05:13:38;;;;;;;25.63;5.80;;;;;;;;;;5094816;28;20039;-69
2021/09/10 05:16:04;;;;;;;32.40;6.25;;;;;;;;;;5094736;28;20032;-69
2021/09/10 05:18:30;;;;;;;22.83;5.35;;;;;;;;;;5094896;28;20043;-70
2021/09/10 05:20:56;;;;;;;27.55;5.22;;;;;;;;;;5094880;28;20057;-70
2021/09/10 05:23:22;;;;;;;17.23;5.25;;;;;;;;;;5094635;28;20396;-69
2021/09/10 05:25:48;;;;;;;16.55;5.07;;;;;;;;;;5094507;28;20044;-70
2021/09/10 05:28:14;;;;;;;16.52;4.60;;;;;;;;;;5096129;28;20039;-70
2021/09/10 05:30:40;;;;;;;17.45;4.55;;;;;;;;;;5094520;28;20051;-69
2021/09/10 05:33:06;;;;;;;14.40;4.68;;;;;;;;;;5094388;28;20094;-69
2021/09/10 05:35:32;;;;;;;12.15;4.80;;;;;;;;;;5094452;28;20040;-70
2021/09/10 05:37:58;;;;;;;16.10;4.60;;;;;;;;;;5094331;28;20032;-70
2021/09/10 05:40:24;;;;;;;20.48;4.60;;;;;;;;;;5094016;28;20042;-69
2021/09/10 05:42:50;;;;;;;26.75;5.15;;;;;;;;;;5094866;28;20384;-70
2021/09/10 05:45:16;;;;;;;19.90;4.80;;;;;;;;;;5093941;28;20140;-70
2021/09/10 05:47:42;;;;;;;12.68;4.63;;;;;;;;;;5094637;28;20108;-69
2021/09/10 05:50:08;;;;;;;14.55;4.85;;;;;;;;;;5094248;28;20055;-70
2021/09/10 05:52:35;;;;;;;17.45;4.72;;;;;;;;;;5094018;28;20388;-70
2021/09/10 05:55:01;;;;;;;15.07;5.30;;;;;;;;;;5094419;28;20162;-69
2021/09/10 05:57:27;;;;;;;18.55;4.53;;;;;;;;;;5093954;28;20100;-68
2021/09/10 05:59:53;;;;;;;14.02;4.40;;;;;;;;;;5093981;28;20385;-68
2021/09/10 06:02:21;;;;;;;14.65;5.10;;;;;;;;;;5093742;28;20115;-69
2021/09/10 06:04:48;;;;;;;12.23;3.90;;;;;;;;;;5093503;28;20040;-68
2021/09/10 06:07:15;;;;;;;19.65;3.95;;;;;;;;;;5093756;28;20036;-71
2021/09/10 06:09:41;;;;;;;11.77;3.72;;;;;;;;;;5093704;28;20503;-71
2021/09/10 06:12:07;;;;;;;11.27;3.80;;;;;;;;;;5093614;28;20028;-72
2021/09/10 06:14:34;;;;;;;20.42;4.35;;;;;;;;;;5093802;28;20035;-71
2021/09/10 06:17:00;;;;;;;14.77;5.15;;;;;;;;;;5093654;28;20388;-72
2021/09/10 06:19:26;;;;;;;19.23;4.60;;;;;;;;;;5093333;28;20028;-74
2021/09/10 06:21:52;;;;;;;16.20;4.65;;;;;;;;;;5093831;28;20361;-70
2021/09/10 06:24:18;;;;;;;21.35;5.45;;;;;;;;;;5075104;28;20044;-73
2021/09/10 06:26:44;;;;;;;11.57;4.10;;;;;;;;;;5093385;28;20507;-71
2021/09/10 06:29:11;;;;;;;22.77;6.15;;;;;;;;;;5093491;28;20036;-72
2021/09/10 06:31:39;;;;;;;28.92;6.38;;;;;;;;;;5093201;28;20078;-72
2021/09/10 06:34:05;;;;;;;29.13;5.20;;;;;;;;;;5093206;28;20047;-72
2021/09/10 06:36:31;;;;;;;14.65;4.65;;;;;;;;;;5093351;28;20044;-72
2021/09/10 06:38:57;;;;;;;20.35;5.10;;;;;;;;;;5093158;28;20032;-71
2021/09/10 06:41:23;;;;;;;14.82;3.78;;;;;;;;;;5093460;28;20507;-74
2021/09/10 06:43:49;;;;;;;16.23;4.55;;;;;;;;;;5093092;28;20028;-72
2021/09/10 06:46:16;;;;;;;10.23;3.75;;;;;;;;;;5092952;28;20557;-72
2021/09/10 06:48:42;;;;;;;11.02;4.68;;;;;;;;;;5092836;28;20055;-73
2021/09/10 06:51:08;;;;;;;13.90;4.60;;;;;;;;;;5093316;28;20028;-72
2021/09/10 06:53:35;;;;;;;11.45;4.00;;;;;;;;;;5093587;28;20032;-72
2021/09/10 06:56:02;;;;;;;10.55;4.13;;;;;;;;;;5093472;28;20164;-71
2021/09/10 06:58:28;;;;;;;12.15;3.90;;;;;;;;;;5093252;28;20472;-73
2021/09/10 07:00:55;;;;;;;10.73;4.40;;;;;;;;;;5092642;28;20081;-73
2021/09/10 07:03:21;;;;;;;16.38;4.00;;;;;;;;;;5091461;28;20603;-71
2021/09/10 07:05:47;;;;;;;8.27;3.97;;;;;;;;;;5092176;28;20047;-71
2021/09/10 07:08:13;;;;;;;14.00;3.67;;;;;;;;;;5093446;28;20369;-71
2021/09/10 07:10:40;;;;;;;10.57;3.55;;;;;;;;;;5093354;28;20028;-70
2021/09/10 07:13:06;;;;;;;14.02;4.55;;;;;;;;;;5093546;28;20032;-72
2021/09/10 07:15:32;;;;;;;12.68;4.25;;;;;;;;;;5092635;28;20078;-70
2021/09/10 07:17:58;;;;;;;12.50;3.97;;;;;;;;;;5093074;28;20036;-71
2021/09/10 07:20:24;;;;;;;7.90;4.00;;;;;;;;;;5093079;28;20032;-70
2021/09/10 07:22:50;;;;;;;15.18;3.70;;;;;;;;;;5093235;28;20070;-71
2021/09/10 07:25:16;;;;;;;8.73;3.90;;;;;;;;;;5092559;28;20047;-71
2021/09/10 07:27:42;;;;;;;11.57;4.00;;;;;;;;;;5093143;28;20043;-73
2021/09/10 07:30:09;;;;;;;7.15;3.10;;;;;;;;;;5093782;28;20507;-74
2021/09/10 07:32:35;;;;;;;9.95;3.42;;;;;;;;;;5093132;28;20024;-71
2021/09/10 07:35:01;;;;;;;9.05;3.75;;;;;;;;;;5093368;28;20378;-71
2021/09/10 07:37:27;;;;;;;10.57;3.60;;;;;;;;;;5092994;28;20468;-71
2021/09/10 07:39:56;;;;;;;11.55;3.70;;;;;;;;;;5092755;28;20082;-71
2021/09/10 07:42:23;;;;;;;6.55;3.20;;;;;;;;;;5093156;28;20029;-71
2021/09/10 07:44:50;;;;;;;10.27;3.92;;;;;;;;;;5092934;28;20126;-70
2021/09/10 07:47:17;;;;;;;4.63;3.50;;;;;;;;;;5075236;28;20036;-71
2021/09/10 07:49:45;;;;;;;8.23;3.70;;;;;;;;;;5092866;28;20048;-71
2021/09/10 07:52:11;;;;;;;8.00;3.83;;;;;;;;;;5092759;28;20119;-71
2021/09/10 07:54:38;;;;;;;11.10;4.15;;;;;;;;;;5092626;28;20039;-73
2021/09/10 07:57:04;;;;;;;11.55;3.55;;;;;;;;;;5092788;28;20039;-74
2021/09/10 07:59:30;;;;;;;9.57;3.83;;;;;;;;;;5092730;28;20039;-71
2021/09/10 08:01:56;;;;;;;10.27;3.25;;;;;;;;;;5092903;28;20032;-71
2021/09/10 08:04:24;;;;;;;10.00;3.63;;;;;;;;;;5092937;28;20488;-71
2021/09/10 08:06:50;;;;;;;14.00;3.45;;;;;;;;;;5092895;28;20036;-74
2021/09/10 08:09:16;;;;;;;10.23;3.25;;;;;;;;;;5092739;28;20028;-72
2021/09/10 08:11:42;;;;;;;8.07;3.50;;;;;;;;;;5092793;28;20066;-71
2021/09/10 08:14:10;;;;;;;6.22;3.47;;;;;;;;;;5092515;28;20027;-74
2021/09/10 08:16:36;;;;;;;6.40;3.28;;;;;;;;;;5092603;28;20044;-71
2021/09/10 08:19:02;;;;;;;7.18;3.38;;;;;;;;;;5092979;28;20044;-71
2021/09/10 08:21:28;;;;;;;11.18;3.10;;;;;;;;;;5092762;28;20401;-70
2021/09/10 08:23:54;;;;;;;9.93;3.63;;;;;;;;;;5092643;28;20103;-71
2021/09/10 08:26:20;;;;;;;4.57;3.03;;;;;;;;;;5092442;28;20078;-74
2021/09/10 08:28:46;;;;;;;12.27;3.70;;;;;;;;;;5092224;28;20430;-74
2021/09/10 08:31:13;;;;;;;8.52;3.42;;;;;;;;;;5092549;28;20043;-73
2021/09/10 08:33:39;;;;;;;11.68;3.38;;;;;;;;;;5092466;28;20476;-71
2021/09/10 08:36:05;;;;;;;8.43;3.28;;;;;;;;;;5092794;28;20040;-73
2021/09/10 08:38:31;;;;;;;15.45;4.32;;;;;;;;;;5096051;28;20047;-71
2021/09/10 08:40:58;;;;;;;10.35;3.47;;;;;;;;;;5095984;28;20521;-73
2021/09/10 08:43:25;;;;;;;8.50;3.55;;;;;;;;;;5095980;28;20046;-71
2021/09/10 08:45:52;;;;;;;8.27;3.35;;;;;;;;;;5095982;28;20130;-70
2021/09/10 08:48:18;;;;;;;7.40;3.05;;;;;;;;;;5095994;28;20024;-73
2021/09/10 08:50:47;;;;;;;7.50;3.72;;;;;;;;;;5095864;28;20127;-71
2021/09/10 08:53:13;;;;;;;15.40;3.67;;;;;;;;;;5095943;28;20362;-74
2021/09/10 08:55:39;;;;;;;8.82;3.38;;;;;;;;;;5096089;28;20086;-71
2021/09/10 08:58:05;;;;;;;10.00;3.40;;;;;;;;;;5095790;28;20028;-72
2021/09/10 09:00:33;;;;;;;12.98;3.65;;;;;;;;;;5095825;28;20047;-71
2021/09/10 09:02:59;;;;;;;17.42;4.38;;;;;;;;;;5095819;28;20054;-73
2021/09/10 09:05:26;;;;;;;7.38;3.40;;;;;;;;;;5095890;28;20370;-74
2021/09/10 09:08:08;;;;;;;9.30;3.47;;;;;;;;;;5095558;28;20032;-72
2021/09/10 09:10:56;;;;;;;11.60;3.80;;;;;;;;;;5096219;28;20439;-71
2021/09/10 09:13:23;;;;;;;9.05;3.13;;;;;;;;;;5095456;28;20500;-71
2021/09/10 09:15:49;;;;;;;10.18;3.42;;;;;;;;;;5095165;28;20058;-71
2021/09/10 09:18:15;;;;;;;10.38;3.17;;;;;;;;;;5095289;28;20396;-71
2021/09/10 09:20:46;;;;;;;7.15;3.25;;;;;;;;;;5095019;28;20365;-72
2021/09/10 09:23:14;;;;;;;8.43;3.03;;;;;;;;;;5095501;28;20119;-70
2021/09/10 09:25:42;;;;;;;8.10;3.15;;;;;;;;;;5095393;28;20040;-73
2021/09/10 09:28:25;;;;;;;14.35;3.65;;;;;;;;;;5095026;28;20064;-74
2021/09/10 09:31:00;;;;;;;7.90;3.55;;;;;;;;;;5094939;28;20032;-71
2021/09/10 09:33:28;;;;;;;8.30;3.65;;;;;;;;;;5095315;28;20448;-74
2021/09/10 09:35:58;;;;;;;7.03;3.60;;;;;;;;;;5094964;28;20427;-74
2021/09/10 09:38:33;;;;;;;6.63;3.22;;;;;;;;;;5094910;28;20040;-74
2021/09/10 09:41:04;;;;;;;9.02;3.25;;;;;;;;;;5095189;28;20047;-74
2021/09/10 09:43:31;;;;;;;8.90;3.65;;;;;;;;;;5094726;28;20032;-73
2021/09/10 09:45:57;;;;;;;7.15;3.50;;;;;;;;;;5094786;28;20048;-71
2021/09/10 09:48:27;;;;;;;8.65;3.50;;;;;;;;;;5094230;28;20051;-71
2021/09/10 09:50:56;;;;;;;11.25;3.95;;;;;;;;;;5094552;28;20523;-71
2021/09/10 09:53:22;;;;;;;8.95;3.58;;;;;;;;;;5094658;28;20495;-73
2021/09/10 09:55:49;;;;;;;6.78;3.30;;;;;;;;;;5094726;28;20078;-71
2021/09/10 09:58:16;;;;;;;7.03;3.70;;;;;;;;;;5094569;28;20032;-70
2021/09/10 10:00:43;;;;;;;11.05;3.60;;;;;;;;;;5094966;28;20058;-70
2021/09/10 10:03:09;;;;;;;5.95;3.05;;;;;;;;;;5095044;28;20119;-73
2021/09/10 10:05:50;;;;;;;7.38;3.67;;;;;;;;;;5094244;28;20131;-74
2021/09/10 10:08:19;;;;;;;7.10;3.42;;;;;;;;;;5094472;28;20064;-71
2021/09/10 10:10:49;;;;;;;8.48;3.50;;;;;;;;;;5094529;28;20039;-72
2021/09/10 10:13:21;;;;;;;8.23;3.70;;;;;;;;;;5094176;28;20486;-72
2021/09/10 10:15:48;;;;;;;7.80;3.60;;;;;;;;;;5076306;28;20043;-70
2021/09/10 10:18:34;;;;;;;9.20;3.60;;;;;;;;;;5094377;28;20511;-71
2021/09/10 10:21:00;;;;;;;5.78;3.47;;;;;;;;;;5094092;28;20036;-73
2021/09/10 10:23:45;;;;;;;8.57;3.20;;;;;;;;;;5076211;28;20043;-71
2021/09/10 10:26:30;;;;;;;9.25;3.30;;;;;;;;;;5093864;28;20544;-73
2021/09/10 10:29:22;;;;;;;6.88;3.20;;;;;;;;;;5094021;28;20032;-73
2021/09/10 10:31:58;;;;;;;9.77;3.42;;;;;;;;;;5089502;28;20074;-73
2021/09/10 10:34:24;;;;;;;9.55;3.70;;;;;;;;;;5093789;28;20036;-71
2021/09/10 10:36:50;;;;;;;7.80;3.30;;;;;;;;;;5093637;28;20039;-71
2021/09/10 10:39:18;;;;;;;6.50;3.45;;;;;;;;;;5093849;28;20042;-73
2021/09/10 10:41:46;;;;;;;14.25;3.78;;;;;;;;;;5094031;28;20032;-74
2021/09/10 10:44:32;;;;;;;10.20;3.67;;;;;;;;;;5093772;28;20119;-70
2021/09/10 10:47:05;;;;;;;11.52;3.05;;;;;;;;;;5076465;28;20043;-73
2021/09/10 10:49:32;;;;;;;7.75;3.13;;;;;;;;;;5075400;28;20065;-73
2021/09/10 10:51:58;;;;;;;8.75;3.47;;;;;;;;;;5093749;28;20396;-74
2021/09/10 10:54:28;;;;;;;10.85;3.08;;;;;;;;;;5093470;28;20028;-71
2021/09/10 10:56:54;;;;;;;6.90;3.22;;;;;;;;;;5093511;28;20032;-73
2021/09/10 10:59:21;;;;;;;7.47;3.50;;;;;;;;;;5089763;28;20036;-72
2021/09/10 11:02:06;;;;;;;10.13;3.92;;;;;;;;;;5090439;28;20063;-71
2021/09/10 11:04:39;;;;;;;10.73;3.92;;;;;;;;;;5092458;28;20048;-70
2021/09/10 11:07:06;;;;;;;11.07;4.03;;;;;;;;;;5093169;28;20055;-70
2021/09/10 11:09:32;;;;;;;7.28;3.72;;;;;;;;;;5093106;28;20213;-70
2021/09/10 11:11:59;;;;;;;6.97;3.75;;;;;;;;;;5093252;28;20031;-73
2021/09/10 11:14:35;;;;;;;6.28;3.67;;;;;;;;;;5093179;28;20032;-71
2021/09/10 11:17:14;;;;;;;8.52;3.83;;;;;;;;;;5093210;28;20102;-74
2021/09/10 11:19:46;;;;;;;10.00;3.67;;;;;;;;;;5093182;28;20125;-73
2021/09/10 11:22:12;;;;;;;14.95;3.97;;;;;;;;;;5092869;28;20036;-71
2021/09/10 11:24:38;;;;;;;11.88;3.75;;;;;;;;;;5090027;28;20040;-71
2021/09/10 11:27:23;;;;;;;11.82;4.00;;;;;;;;;;5090282;28;20047;-70
2021/09/10 11:29:49;;;;;;;11.80;4.03;;;;;;;;;;5091499;28;20051;-70
2021/09/10 11:32:21;;;;;;;8.98;3.38;;;;;;;;;;5092569;28;20032;-71
2021/09/10 11:34:47;;;;;;;;;;;;;;;;;;5093306;28;20032;-73
2021/09/10 11:37:13;;;;;;;6.07;3.35;;;;;;;;;;5093195;28;19904;-71
2021/09/10 11:39:45;;;;;;;9.25;3.90;;;;;;;;;;5093035;28;20373;-73
2021/09/10 11:42:11;;;;;;;16.25;3.92;;;;;;;;;;5093056;28;20155;-73
2021/09/10 11:44:37;;;;;;;9.40;3.90;;;;;;;;;;5092516;28;20055;-74
2021/09/10 11:47:04;;;;;;;17.52;4.47;;;;;;;;;;5092725;28;20458;-72
2021/09/10 11:49:29;;;;;;;13.48;3.90;;;;;;;;;;5092826;28;20050;-70
2021/09/10 11:51:57;;;;;;;8.60;3.70;;;;;;;;;;5092854;28;20103;-74
2021/09/10 11:54:27;;;;;;;12.77;3.85;;;;;;;;;;5092297;28;20032;-70
2021/09/10 11:56:53;;;;;;;6.32;3.85;;;;;;;;;;5092769;28;20119;-71
2021/09/10 11:59:25;;;;;;;9.13;3.75;;;;;;;;;;5092736;28;20064;-71
2021/09/10 12:01:51;;;;;;;4.95;3.55;;;;;;;;;;5092594;28;20063;-71
2021/09/10 12:04:34;;;;;;;10.02;3.83;;;;;;;;;;5092428;28;20068;-71
2021/09/10 12:07:01;;;;;;;10.38;3.72;;;;;;;;;;5092428;28;20060;-73
2021/09/10 12:09:30;;;;;;;13.05;4.38;;;;;;;;;;5092530;28;20032;-70
2021/09/10 12:11:59;;;;;;;6.47;3.40;;;;;;;;;;5095867;28;20032;-70
2021/09/10 12:14:44;;;;;;;6.72;3.55;;;;;;;;;;5096353;28;20111;-72
2021/09/10 12:17:10;;;;;;;7.85;3.38;;;;;;;;;;5096719;28;20400;-73
2021/09/10 12:19:55;;;;;;;8.88;3.83;;;;;;;;;;5096454;28;20527;-73
2021/09/10 12:22:50;;;;;;;5.88;3.60;;;;;;;;;;5096479;28;20059;-72
2021/09/10 12:25:28;;;;;;;7.93;3.58;;;;;;;;;;5093830;28;20070;-73
2021/09/10 12:27:54;;;;;;;8.18;3.67;;;;;;;;;;5096306;28;20032;-70
2021/09/10 12:30:21;;;;;;;12.05;3.80;;;;;;;;;;5096338;28;20032;-72
2021/09/10 12:32:47;;;;;;;8.05;4.05;;;;;;;;;;5096344;28;20062;-71
2021/09/10 12:35:14;;;;;;;7.53;3.50;;;;;;;;;;5096346;28;20433;-73
2021/09/10 12:37:40;;;;;;;6.53;3.17;;;;;;;;;;5096245;28;20043;-70
2021/09/10 12:40:07;;;;;;;7.55;3.45;;;;;;;;;;5095938;28;20119;-70
2021/09/10 12:42:33;;;;;;;12.65;3.25;;;;;;;;;;5096192;28;20032;-71
2021/09/10 12:44:59;;;;;;;6.00;3.47;;;;;;;;;;5095989;28;20040;-70
2021/09/10 12:47:25;;;;;;;10.13;3.22;;;;;;;;;;5096042;28;20032;-72
2021/09/10 12:49:51;;;;;;;5.28;2.90;;;;;;;;;;5095720;28;20556;-70
2021/09/10 12:52:17;;;;;;;14.45;3.60;;;;;;;;;;5096125;28;20060;-70
2021/09/10 12:54:43;;;;;;;7.88;3.58;;;;;;;;;;5095946;28;20020;-70
2021/09/10 12:57:09;;;;;;;8.93;3.38;;;;;;;;;;5095778;28;20048;-70
2021/09/10 12:59:35;;;;;;;6.70;3.45;;;;;;;;;;5095483;28;20397;-73
2021/09/10 13:02:03;;;;;;;7.50;3.22;;;;;;;;;;5095431;28;20140;-71
2021/09/10 13:04:29;;;;;;;12.18;3.70;;;;;;;;;;5095627;28;20024;-74
2021/09/10 13:06:55;;;;;;;11.02;3.40;;;;;;;;;;5095549;28;20036;-73
2021/09/10 13:09:25;;;;;;;12.15;3.45;;;;;;;;;;5095457;28;20540;-72
2021/09/10 13:11:51;;;;;;;6.90;2.90;;;;;;;;;;5095435;28;20032;-71
2021/09/10 13:14:17;;;;;;;6.68;3.00;;;;;;;;;;5095390;28;20070;-75
2021/09/10 13:16:43;;;;;;;6.13;3.25;;;;;;;;;;5095182;28;20388;-71
2021/09/10 13:19:09;;;;;;;5.57;3.03;;;;;;;;;;5095318;28;20075;-74
2021/09/10 13:21:35;;;;;;;8.43;3.17;;;;;;;;;;5094948;28;20052;-73
2021/09/10 13:24:01;;;;;;;10.50;3.75;;;;;;;;;;5095081;28;20028;-72
2021/09/10 13:26:27;;;;;;;7.88;3.40;;;;;;;;;;5094991;28;20051;-72
2021/09/10 13:28:53;;;;;;;10.48;3.47;;;;;;;;;;5095217;28;20039;-73
2021/09/10 13:31:20;;;;;;;10.40;3.17;;;;;;;;;;5095208;28;20111;-70
2021/09/10 13:33:46;;;;;;;6.45;3.53;;;;;;;;;;5095204;28;20549;-74
2021/09/10 13:36:12;;;;;;;10.63;3.20;;;;;;;;;;5095012;28;20113;-73
2021/09/10 13:38:38;;;;;;;9.20;3.42;;;;;;;;;;5095114;28;20044;-71
2021/09/10 13:41:04;;;;;;;15.85;3.28;;;;;;;;;;5094825;28;20040;-71
2021/09/10 13:43:30;;;;;;;9.48;3.22;;;;;;;;;;5095030;28;20025;-73
2021/09/10 13:45:56;;;;;;;10.35;3.55;;;;;;;;;;5094830;28;20467;-72
2021/09/10 13:48:23;;;;;;;13.57;3.38;;;;;;;;;;5094989;28;20032;-71
2021/09/10 13:50:49;;;;;;;5.15;3.10;;;;;;;;;;5094771;28;20063;-73
2021/09/10 13:53:15;;;;;;;7.05;3.05;;;;;;;;;;5094631;28;20039;-74
2021/09/10 13:55:41;;;;;;;6.32;3.60;;;;;;;;;;5094509;28;20040;-71
2021/09/10 13:58:08;;;;;;;3.83;2.75;;;;;;;;;;5094582;28;20040;-70
2021/09/10 14:00:34;;;;;;;4.85;3.00;;;;;;;;;;5094756;28;20488;-70
2021/09/10 14:03:00;;;;;;;5.20;3.00;;;;;;;;;;5094503;28;20480;-74
2021/09/10 14:05:26;;;;;;;8.52;3.58;;;;;;;;;;5094469;28;20070;-70
2021/09/10 14:07:53;;;;;;;7.78;3.30;;;;;;;;;;5076464;28;20024;-70
2021/09/10 14:10:19;;;;;;;13.50;3.25;;;;;;;;;;5094206;28;20035;-70
2021/09/10 14:12:45;;;;;;;8.15;3.30;;;;;;;;;;5094225;28;20036;-71
2021/09/10 14:15:11;;;;;;;5.78;3.35;;;;;;;;;;5094370;28;20063;-74
2021/09/10 14:17:37;;;;;;;5.40;3.15;;;;;;;;;;5094257;28;20116;-71
2021/09/10 14:20:04;;;;;;;5.72;3.20;;;;;;;;;;5094293;28;20028;-71
2021/09/10 14:22:30;;;;;;;4.93;3.13;;;;;;;;;;5094403;28;20400;-74
2021/09/10 14:24:56;;;;;;;8.55;3.50;;;;;;;;;;5093107;28;20040;-70
2021/09/10 14:27:23;;;;;;;8.88;3.20;;;;;;;;;;5092581;28;20043;-71
2021/09/10 14:29:49;;;;;;;7.10;3.17;;;;;;;;;;5093293;28;20075;-70
2021/09/10 14:32:15;;;;;;;5.70;3.15;;;;;;;;;;5093647;28;20028;-73
2021/09/10 14:34:41;;;;;;;7.88;3.33;;;;;;;;;;5092138;28;20031;-71
2021/09/10 14:37:07;;;;;;;8.50;3.55;;;;;;;;;;5093316;28;20071;-70